sensor_id;sensor_type;location;lat;lon;timestamp;P1;durP1;ratioP1;P2;durP2;ratioP2
1509;SDS011;746;48.688;9.428;2022-11-15T00:02:16;10.07;;;9.20;;
1509;SDS011;746;48.688;9.428;2022-11-15T00:04:37;10.40;;;9.37;;
1509;SDS011;746;48.688;9.428;2022-11-15T00:07:00;10.10;;;9.10;;
1509;SDS011;746;48.688;9.428;2022-11-15T00:09:21;10.27;;;9.27;;
1509;SDS011;746;48.688;9.428;2022-11-15T00:11:42;10.57;;;9.20;;
1509;SDS011;746;48.688;9.428;2022-11-15T00:14:04;10.87;;;9.87;;
1509;SDS011;746;48.688;9.428;2022-11-15T00:16:25;11.67;;;10.47;;
1509;SDS011;746;48.688;9.428;2022-11-15T00:18:46;14.27;;;11.60;;
1509;SDS011;746;48.688;9.428;2022-11-15T00:21:10;15.07;;;13.00;;
1509;SDS011;746;48.688;9.428;2022-11-15T00:23:33;15.57;;;12.40;;
1509;SDS011;746;48.688;9.428;2022-11-15T00:25:55;15.13;;;13.53;;
1509;SDS011;746;48.688;9.428;2022-11-15T00:28:17;12.87;;;11.57;;
1509;SDS011;746;48.688;9.428;2022-11-15T00:30:38;13.33;;;11.60;;
1509;SDS011;746;48.688;9.428;2022-11-15T00:33:01;16.47;;;13.60;;
1509;SDS011;746;48.688;9.428;2022-11-15T00:35:22;13.93;;;12.50;;
1509;SDS011;746;48.688;9.428;2022-11-15T00:37:43;14.90;;;13.33;;
1509;SDS011;746;48.688;9.428;2022-11-15T00:40:07;13.27;;;11.87;;
1509;SDS011;746;48.688;9.428;2022-11-15T00:42:28;13.70;;;12.40;;
1509;SDS011;746;48.688;9.428;2022-11-15T00:44:49;14.87;;;13.23;;
1509;SDS011;746;48.688;9.428;2022-11-15T00:47:11;15.47;;;13.97;;
1509;SDS011;746;48.688;9.428;2022-11-15T00:49:32;14.30;;;12.90;;
1509;SDS011;746;48.688;9.428;2022-11-15T00:51:54;13.73;;;12.27;;
1509;SDS011;746;48.688;9.428;2022-11-15T00:54:15;14.03;;;12.30;;
1509;SDS011;746;48.688;9.428;2022-11-15T00:56:38;13.80;;;12.40;;
1509;SDS011;746;48.688;9.428;2022-11-15T00:58:59;13.43;;;12.13;;
1509;SDS011;746;48.688;9.428;2022-11-15T01:01:21;13.63;;;12.30;;
1509;SDS011;746;48.688;9.428;2022-11-15T01:03:42;12.43;;;11.13;;
1509;SDS011;746;48.688;9.428;2022-11-15T01:06:04;13.47;;;12.17;;
1509;SDS011;746;48.688;9.428;2022-11-15T01:08:26;12.93;;;11.03;;
1509;SDS011;746;48.688;9.428;2022-11-15T01:10:47;12.50;;;11.20;;
1509;SDS011;746;48.688;9.428;2022-11-15T01:13:10;12.97;;;11.67;;
1509;SDS011;746;48.688;9.428;2022-11-15T01:15:31;14.17;;;10.90;;
1509;SDS011;746;48.688;9.428;2022-11-15T01:17:52;13.50;;;12.17;;
1509;SDS011;746;48.688;9.428;2022-11-15T01:20:14;14.90;;;13.37;;
1509;SDS011;746;48.688;9.428;2022-11-15T01:22:36;16.43;;;13.27;;
1509;SDS011;746;48.688;9.428;2022-11-15T01:24:57;15.27;;;13.67;;
1509;SDS011;746;48.688;9.428;2022-11-15T01:27:18;14.30;;;12.40;;
1509;SDS011;746;48.688;9.428;2022-11-15T01:29:41;14.53;;;13.03;;
1509;SDS011;746;48.688;9.428;2022-11-15T01:32:02;13.80;;;11.83;;
1509;SDS011;746;48.688;9.428;2022-11-15T01:34:23;17.10;;;15.03;;
1509;SDS011;746;48.688;9.428;2022-11-15T01:36:45;15.87;;;13.93;;
1509;SDS011;746;48.688;9.428;2022-11-15T01:39:07;16.03;;;14.13;;
1509;SDS011;746;48.688;9.428;2022-11-15T01:41:30;13.93;;;12.50;;
1509;SDS011;746;48.688;9.428;2022-11-15T01:43:52;12.30;;;11.00;;
1509;SDS011;746;48.688;9.428;2022-11-15T01:46:19;12.57;;;11.17;;
1509;SDS011;746;48.688;9.428;2022-11-15T01:48:43;13.27;;;11.87;;
1509;SDS011;746;48.688;9.428;2022-11-15T01:51:05;13.50;;;10.80;;
1509;SDS011;746;48.688;9.428;2022-11-15T01:53:27;12.37;;;10.97;;
1509;SDS011;746;48.688;9.428;2022-11-15T01:55:49;12.20;;;10.90;;
1509;SDS011;746;48.688;9.428;2022-11-15T01:58:11;12.33;;;11.07;;
1509;SDS011;746;48.688;9.428;2022-11-15T02:00:32;12.53;;;11.33;;
1509;SDS011;746;48.688;9.428;2022-11-15T02:02:55;13.50;;;10.97;;
1509;SDS011;746;48.688;9.428;2022-11-15T02:05:16;13.00;;;11.60;;
1509;SDS011;746;48.688;9.428;2022-11-15T02:07:37;11.93;;;10.70;;
1509;SDS011;746;48.688;9.428;2022-11-15T02:09:59;12.17;;;10.57;;
1509;SDS011;746;48.688;9.428;2022-11-15T02:12:23;13.03;;;10.80;;
1509;SDS011;746;48.688;9.428;2022-11-15T02:14:46;10.77;;;9.67;;
1509;SDS011;746;48.688;9.428;2022-11-15T02:17:11;12.20;;;11.00;;
1509;SDS011;746;48.688;9.428;2022-11-15T02:19:49;11.43;;;10.23;;
1509;SDS011;746;48.688;9.428;2022-11-15T02:22:19;12.03;;;10.77;;
1509;SDS011;746;48.688;9.428;2022-11-15T02:24:50;12.50;;;11.27;;
1509;SDS011;746;48.688;9.428;2022-11-15T02:27:21;12.83;;;11.50;;
1509;SDS011;746;48.688;9.428;2022-11-15T02:29:53;13.00;;;11.70;;
1509;SDS011;746;48.688;9.428;2022-11-15T02:32:20;13.40;;;12.10;;
1509;SDS011;746;48.688;9.428;2022-11-15T02:34:45;13.50;;;12.10;;
1509;SDS011;746;48.688;9.428;2022-11-15T02:37:11;14.13;;;11.97;;
1509;SDS011;746;48.688;9.428;2022-11-15T02:39:35;13.37;;;11.97;;
1509;SDS011;746;48.688;9.428;2022-11-15T02:42:00;14.10;;;12.27;;
1509;SDS011;746;48.688;9.428;2022-11-15T02:44:23;12.73;;;11.47;;
1509;SDS011;746;48.688;9.428;2022-11-15T02:46:45;14.03;;;12.40;;
1509;SDS011;746;48.688;9.428;2022-11-15T02:49:28;13.67;;;12.27;;
1509;SDS011;746;48.688;9.428;2022-11-15T02:51:51;13.13;;;11.73;;
1509;SDS011;746;48.688;9.428;2022-11-15T02:54:14;13.30;;;11.90;;
1509;SDS011;746;48.688;9.428;2022-11-15T02:56:36;12.80;;;11.43;;
1509;SDS011;746;48.688;9.428;2022-11-15T02:59:00;14.70;;;12.60;;
1509;SDS011;746;48.688;9.428;2022-11-15T03:01:30;13.17;;;11.87;;
1509;SDS011;746;48.688;9.428;2022-11-15T03:03:56;13.77;;;12.30;;
1509;SDS011;746;48.688;9.428;2022-11-15T03:06:23;15.03;;;13.40;;
1509;SDS011;746;48.688;9.428;2022-11-15T03:08:49;15.97;;;12.63;;
1509;SDS011;746;48.688;9.428;2022-11-15T03:11:14;13.40;;;11.80;;
1509;SDS011;746;48.688;9.428;2022-11-15T03:13:36;13.83;;;12.03;;
1509;SDS011;746;48.688;9.428;2022-11-15T03:16:02;12.50;;;11.20;;
1509;SDS011;746;48.688;9.428;2022-11-15T03:18:25;16.07;;;11.57;;
1509;SDS011;746;48.688;9.428;2022-11-15T03:20:49;12.10;;;10.87;;
1509;SDS011;746;48.688;9.428;2022-11-15T03:23:12;12.87;;;11.53;;
1509;SDS011;746;48.688;9.428;2022-11-15T03:25:35;13.27;;;11.87;;
1509;SDS011;746;48.688;9.428;2022-11-15T03:27:57;13.83;;;10.53;;
1509;SDS011;746;48.688;9.428;2022-11-15T03:30:20;14.50;;;11.23;;
1509;SDS011;746;48.688;9.428;2022-11-15T03:32:42;13.40;;;11.13;;
1509;SDS011;746;48.688;9.428;2022-11-15T03:35:05;12.77;;;11.57;;
1509;SDS011;746;48.688;9.428;2022-11-15T03:37:29;12.60;;;10.93;;
1509;SDS011;746;48.688;9.428;2022-11-15T03:39:53;13.17;;;11.73;;
1509;SDS011;746;48.688;9.428;2022-11-15T03:42:16;12.40;;;11.13;;
1509;SDS011;746;48.688;9.428;2022-11-15T03:44:40;13.37;;;11.97;;
1509;SDS011;746;48.688;9.428;2022-11-15T03:47:03;13.70;;;12.40;;
1509;SDS011;746;48.688;9.428;2022-11-15T03:49:27;12.40;;;11.20;;
1509;SDS011;746;48.688;9.428;2022-11-15T03:51:50;12.13;;;11.03;;
1509;SDS011;746;48.688;9.428;2022-11-15T03:54:12;12.03;;;10.77;;
1509;SDS011;746;48.688;9.428;2022-11-15T03:56:34;12.07;;;10.77;;
1509;SDS011;746;48.688;9.428;2022-11-15T03:58:56;12.37;;;11.07;;
1509;SDS011;746;48.688;9.428;2022-11-15T04:01:17;12.03;;;10.70;;
1509;SDS011;746;48.688;9.428;2022-11-15T04:03:38;11.73;;;10.57;;
1509;SDS011;746;48.688;9.428;2022-11-15T04:05:59;12.67;;;11.47;;
1509;SDS011;746;48.688;9.428;2022-11-15T04:08:21;13.47;;;12.07;;
1509;SDS011;746;48.688;9.428;2022-11-15T04:10:42;12.87;;;11.60;;
1509;SDS011;746;48.688;9.428;2022-11-15T04:13:05;14.10;;;12.10;;
1509;SDS011;746;48.688;9.428;2022-11-15T04:15:26;14.53;;;11.90;;
1509;SDS011;746;48.688;9.428;2022-11-15T04:17:48;13.23;;;11.90;;
1509;SDS011;746;48.688;9.428;2022-11-15T04:20:11;14.67;;;12.17;;
1509;SDS011;746;48.688;9.428;2022-11-15T04:22:51;14.07;;;12.60;;
1509;SDS011;746;48.688;9.428;2022-11-15T04:25:30;12.90;;;11.47;;
1509;SDS011;746;48.688;9.428;2022-11-15T04:27:51;14.30;;;12.60;;
1509;SDS011;746;48.688;9.428;2022-11-15T04:30:15;14.00;;;12.60;;
1509;SDS011;746;48.688;9.428;2022-11-15T04:32:36;13.73;;;12.43;;
1509;SDS011;746;48.688;9.428;2022-11-15T04:34:57;12.53;;;11.33;;
1509;SDS011;746;48.688;9.428;2022-11-15T04:37:18;14.37;;;12.97;;
1509;SDS011;746;48.688;9.428;2022-11-15T04:39:39;13.40;;;12.00;;
1509;SDS011;746;48.688;9.428;2022-11-15T04:42:01;13.13;;;11.70;;
1509;SDS011;746;48.688;9.428;2022-11-15T04:44:22;13.67;;;12.37;;
1509;SDS011;746;48.688;9.428;2022-11-15T04:46:44;14.10;;;11.97;;
1509;SDS011;746;48.688;9.428;2022-11-15T04:49:05;13.77;;;12.23;;
1509;SDS011;746;48.688;9.428;2022-11-15T04:51:27;13.73;;;12.33;;
1509;SDS011;746;48.688;9.428;2022-11-15T04:53:48;12.93;;;11.63;;
1509;SDS011;746;48.688;9.428;2022-11-15T04:56:09;13.03;;;11.57;;
1509;SDS011;746;48.688;9.428;2022-11-15T04:58:31;12.97;;;11.73;;
1509;SDS011;746;48.688;9.428;2022-11-15T05:00:52;11.60;;;10.50;;
1509;SDS011;746;48.688;9.428;2022-11-15T05:03:15;13.50;;;12.10;;
1509;SDS011;746;48.688;9.428;2022-11-15T05:06:09;13.10;;;10.80;;
1509;SDS011;746;48.688;9.428;2022-11-15T05:08:30;11.77;;;10.50;;
1509;SDS011;746;48.688;9.428;2022-11-15T05:10:51;13.23;;;11.87;;
1509;SDS011;746;48.688;9.428;2022-11-15T05:13:13;13.60;;;11.83;;
1509;SDS011;746;48.688;9.428;2022-11-15T05:15:34;13.23;;;11.07;;
1509;SDS011;746;48.688;9.428;2022-11-15T05:17:57;12.47;;;11.27;;
1509;SDS011;746;48.688;9.428;2022-11-15T05:20:20;12.60;;;11.00;;
1509;SDS011;746;48.688;9.428;2022-11-15T05:22:41;12.23;;;10.17;;
1509;SDS011;746;48.688;9.428;2022-11-15T05:25:03;13.60;;;10.97;;
1509;SDS011;746;48.688;9.428;2022-11-15T05:27:25;12.50;;;11.20;;
1509;SDS011;746;48.688;9.428;2022-11-15T05:29:46;11.60;;;10.50;;
1509;SDS011;746;48.688;9.428;2022-11-15T05:32:08;12.13;;;10.83;;
1509;SDS011;746;48.688;9.428;2022-11-15T05:34:29;12.80;;;10.60;;
1509;SDS011;746;48.688;9.428;2022-11-15T05:36:52;12.33;;;10.60;;
1509;SDS011;746;48.688;9.428;2022-11-15T05:39:13;13.77;;;12.37;;
1509;SDS011;746;48.688;9.428;2022-11-15T05:41:36;12.63;;;11.33;;
1509;SDS011;746;48.688;9.428;2022-11-15T05:43:58;11.93;;;10.77;;
1509;SDS011;746;48.688;9.428;2022-11-15T05:46:21;13.07;;;11.33;;
1509;SDS011;746;48.688;9.428;2022-11-15T05:48:43;14.43;;;12.93;;
1509;SDS011;746;48.688;9.428;2022-11-15T05:51:05;14.17;;;12.67;;
1509;SDS011;746;48.688;9.428;2022-11-15T05:53:29;15.07;;;12.77;;
1509;SDS011;746;48.688;9.428;2022-11-15T05:55:51;14.40;;;12.90;;
1509;SDS011;746;48.688;9.428;2022-11-15T05:58:12;14.53;;;13.00;;
1509;SDS011;746;48.688;9.428;2022-11-15T06:00:33;14.63;;;13.13;;
1509;SDS011;746;48.688;9.428;2022-11-15T06:02:55;14.67;;;11.83;;
1509;SDS011;746;48.688;9.428;2022-11-15T06:05:16;13.33;;;12.03;;
1509;SDS011;746;48.688;9.428;2022-11-15T06:07:37;15.83;;;13.77;;
1509;SDS011;746;48.688;9.428;2022-11-15T06:10:00;14.23;;;12.77;;
1509;SDS011;746;48.688;9.428;2022-11-15T06:12:21;13.93;;;12.57;;
1509;SDS011;746;48.688;9.428;2022-11-15T06:14:42;13.70;;;12.27;;
1509;SDS011;746;48.688;9.428;2022-11-15T06:17:03;14.87;;;11.60;;
1509;SDS011;746;48.688;9.428;2022-11-15T06:19:30;14.23;;;12.73;;
1509;SDS011;746;48.688;9.428;2022-11-15T06:21:52;13.57;;;12.20;;
1509;SDS011;746;48.688;9.428;2022-11-15T06:24:14;15.20;;;12.60;;
1509;SDS011;746;48.688;9.428;2022-11-15T06:26:37;13.07;;;11.67;;
1509;SDS011;746;48.688;9.428;2022-11-15T06:28:58;14.47;;;12.37;;
1509;SDS011;746;48.688;9.428;2022-11-15T06:31:19;13.77;;;12.30;;
1509;SDS011;746;48.688;9.428;2022-11-15T06:33:40;15.73;;;12.90;;
1509;SDS011;746;48.688;9.428;2022-11-15T06:36:02;14.97;;;13.40;;
1509;SDS011;746;48.688;9.428;2022-11-15T06:38:23;12.30;;;10.80;;
1509;SDS011;746;48.688;9.428;2022-11-15T06:40:44;20.53;;;18.40;;
1509;SDS011;746;48.688;9.428;2022-11-15T06:43:07;21.93;;;17.57;;
1509;SDS011;746;48.688;9.428;2022-11-15T06:45:28;21.53;;;18.97;;
1509;SDS011;746;48.688;9.428;2022-11-15T06:47:50;17.07;;;15.27;;
1509;SDS011;746;48.688;9.428;2022-11-15T06:50:11;15.57;;;13.77;;
1509;SDS011;746;48.688;9.428;2022-11-15T06:52:32;13.50;;;12.10;;
1509;SDS011;746;48.688;9.428;2022-11-15T06:54:53;15.03;;;13.40;;
1509;SDS011;746;48.688;9.428;2022-11-15T06:57:15;14.50;;;13.03;;
1509;SDS011;746;48.688;9.428;2022-11-15T06:59:37;15.73;;;13.43;;
1509;SDS011;746;48.688;9.428;2022-11-15T07:01:59;14.23;;;12.73;;
1509;SDS011;746;48.688;9.428;2022-11-15T07:04:20;13.20;;;12.00;;
1509;SDS011;746;48.688;9.428;2022-11-15T07:06:42;15.33;;;13.50;;
1509;SDS011;746;48.688;9.428;2022-11-15T07:09:03;14.80;;;13.20;;
1509;SDS011;746;48.688;9.428;2022-11-15T07:11:24;15.13;;;13.30;;
1509;SDS011;746;48.688;9.428;2022-11-15T07:13:45;14.70;;;13.20;;
1509;SDS011;746;48.688;9.428;2022-11-15T07:16:09;15.33;;;12.90;;
1509;SDS011;746;48.688;9.428;2022-11-15T07:18:31;13.53;;;12.17;;
1509;SDS011;746;48.688;9.428;2022-11-15T07:20:52;13.57;;;12.17;;
1509;SDS011;746;48.688;9.428;2022-11-15T07:23:13;12.57;;;11.37;;
1509;SDS011;746;48.688;9.428;2022-11-15T07:25:34;15.83;;;13.90;;
1509;SDS011;746;48.688;9.428;2022-11-15T07:27:56;15.00;;;13.40;;
1509;SDS011;746;48.688;9.428;2022-11-15T07:30:18;17.10;;;15.40;;
1509;SDS011;746;48.688;9.428;2022-11-15T07:32:41;18.00;;;15.60;;
1509;SDS011;746;48.688;9.428;2022-11-15T07:35:03;22.87;;;17.53;;
1509;SDS011;746;48.688;9.428;2022-11-15T07:37:24;25.00;;;20.33;;
1509;SDS011;746;48.688;9.428;2022-11-15T07:39:46;26.60;;;20.07;;
1509;SDS011;746;48.688;9.428;2022-11-15T07:42:06;23.10;;;18.43;;
1509;SDS011;746;48.688;9.428;2022-11-15T07:44:45;18.77;;;16.80;;
1509;SDS011;746;48.688;9.428;2022-11-15T07:47:07;18.13;;;15.83;;
1509;SDS011;746;48.688;9.428;2022-11-15T07:49:29;19.10;;;16.03;;
1509;SDS011;746;48.688;9.428;2022-11-15T07:51:50;17.33;;;15.33;;
1509;SDS011;746;48.688;9.428;2022-11-15T07:54:12;19.50;;;14.77;;
1509;SDS011;746;48.688;9.428;2022-11-15T07:56:33;18.53;;;14.47;;
1509;SDS011;746;48.688;9.428;2022-11-15T07:58:54;17.40;;;13.80;;
1509;SDS011;746;48.688;9.428;2022-11-15T08:01:16;18.10;;;14.60;;
1509;SDS011;746;48.688;9.428;2022-11-15T08:03:37;18.57;;;14.73;;
1509;SDS011;746;48.688;9.428;2022-11-15T08:06:00;17.83;;;13.40;;
1509;SDS011;746;48.688;9.428;2022-11-15T08:08:21;18.77;;;12.70;;
1509;SDS011;746;48.688;9.428;2022-11-15T08:10:42;13.33;;;11.90;;
1509;SDS011;746;48.688;9.428;2022-11-15T08:13:04;15.17;;;13.57;;
1509;SDS011;746;48.688;9.428;2022-11-15T08:15:26;19.27;;;16.03;;
1509;SDS011;746;48.688;9.428;2022-11-15T08:17:48;18.33;;;13.67;;
1509;SDS011;746;48.688;9.428;2022-11-15T08:20:13;14.00;;;12.60;;
1509;SDS011;746;48.688;9.428;2022-11-15T08:22:36;14.20;;;12.63;;
1509;SDS011;746;48.688;9.428;2022-11-15T08:24:57;16.47;;;11.83;;
1509;SDS011;746;48.688;9.428;2022-11-15T08:27:18;15.03;;;12.70;;
1509;SDS011;746;48.688;9.428;2022-11-15T08:29:40;17.03;;;13.20;;
1509;SDS011;746;48.688;9.428;2022-11-15T08:32:01;15.27;;;13.63;;
1509;SDS011;746;48.688;9.428;2022-11-15T08:34:23;17.10;;;13.20;;
1509;SDS011;746;48.688;9.428;2022-11-15T08:36:44;12.63;;;11.33;;
1509;SDS011;746;48.688;9.428;2022-11-15T08:39:08;14.47;;;11.80;;
1509;SDS011;746;48.688;9.428;2022-11-15T08:41:31;13.57;;;11.33;;
1509;SDS011;746;48.688;9.428;2022-11-15T08:43:52;13.63;;;10.70;;
1509;SDS011;746;48.688;9.428;2022-11-15T08:46:14;12.60;;;11.03;;
1509;SDS011;746;48.688;9.428;2022-11-15T08:48:35;11.97;;;10.60;;
1509;SDS011;746;48.688;9.428;2022-11-15T08:50:56;12.53;;;10.67;;
1509;SDS011;746;48.688;9.428;2022-11-15T08:53:18;13.13;;;11.57;;
1509;SDS011;746;48.688;9.428;2022-11-15T08:55:40;11.33;;;9.90;;
1509;SDS011;746;48.688;9.428;2022-11-15T08:58:01;11.50;;;10.37;;
1509;SDS011;746;48.688;9.428;2022-11-15T09:00:23;12.37;;;10.23;;
1509;SDS011;746;48.688;9.428;2022-11-15T09:02:44;13.23;;;10.60;;
1509;SDS011;746;48.688;9.428;2022-11-15T09:05:06;15.97;;;13.07;;
1509;SDS011;746;48.688;9.428;2022-11-15T09:07:27;15.03;;;13.47;;
1509;SDS011;746;48.688;9.428;2022-11-15T09:09:50;16.87;;;14.97;;
1509;SDS011;746;48.688;9.428;2022-11-15T09:12:13;15.93;;;14.20;;
1509;SDS011;746;48.688;9.428;2022-11-15T09:14:35;14.30;;;12.43;;
1509;SDS011;746;48.688;9.428;2022-11-15T09:16:56;12.43;;;10.70;;
1509;SDS011;746;48.688;9.428;2022-11-15T09:19:17;12.37;;;9.87;;
1509;SDS011;746;48.688;9.428;2022-11-15T09:21:39;17.87;;;10.60;;
1509;SDS011;746;48.688;9.428;2022-11-15T09:24:00;12.53;;;10.33;;
1509;SDS011;746;48.688;9.428;2022-11-15T09:26:22;18.50;;;12.23;;
1509;SDS011;746;48.688;9.428;2022-11-15T09:28:44;14.20;;;12.03;;
1509;SDS011;746;48.688;9.428;2022-11-15T09:31:09;17.63;;;12.40;;
1509;SDS011;746;48.688;9.428;2022-11-15T09:33:30;15.53;;;12.33;;
1509;SDS011;746;48.688;9.428;2022-11-15T09:35:52;13.17;;;11.77;;
1509;SDS011;746;48.688;9.428;2022-11-15T09:38:17;15.70;;;10.13;;
1509;SDS011;746;48.688;9.428;2022-11-15T09:40:39;15.20;;;10.23;;
1509;SDS011;746;48.688;9.428;2022-11-15T09:43:23;13.53;;;10.87;;
1509;SDS011;746;48.688;9.428;2022-11-15T09:45:52;12.57;;;10.53;;
1509;SDS011;746;48.688;9.428;2022-11-15T09:48:23;11.30;;;10.07;;
1509;SDS011;746;48.688;9.428;2022-11-15T09:50:47;14.27;;;10.93;;
1509;SDS011;746;48.688;9.428;2022-11-15T09:53:11;14.50;;;10.53;;
1509;SDS011;746;48.688;9.428;2022-11-15T09:55:35;16.10;;;11.10;;
1509;SDS011;746;48.688;9.428;2022-11-15T09:58:00;14.70;;;12.63;;
1509;SDS011;746;48.688;9.428;2022-11-15T10:00:25;15.63;;;12.07;;
1509;SDS011;746;48.688;9.428;2022-11-15T10:03:10;14.87;;;12.03;;
1509;SDS011;746;48.688;9.428;2022-11-15T10:05:31;13.40;;;12.00;;
1509;SDS011;746;48.688;9.428;2022-11-15T10:07:55;17.77;;;13.10;;
1509;SDS011;746;48.688;9.428;2022-11-15T10:10:20;14.50;;;12.30;;
1509;SDS011;746;48.688;9.428;2022-11-15T10:12:45;14.93;;;13.30;;
1509;SDS011;746;48.688;9.428;2022-11-15T10:15:10;17.77;;;13.50;;
1509;SDS011;746;48.688;9.428;2022-11-15T10:17:43;14.80;;;13.13;;
1509;SDS011;746;48.688;9.428;2022-11-15T10:20:13;15.03;;;12.13;;
1509;SDS011;746;48.688;9.428;2022-11-15T10:22:38;13.93;;;12.60;;
1509;SDS011;746;48.688;9.428;2022-11-15T10:25:09;12.83;;;11.53;;
1509;SDS011;746;48.688;9.428;2022-11-15T10:27:32;11.57;;;10.33;;
1509;SDS011;746;48.688;9.428;2022-11-15T10:29:53;14.60;;;11.30;;
1509;SDS011;746;48.688;9.428;2022-11-15T10:32:16;11.90;;;10.70;;
1509;SDS011;746;48.688;9.428;2022-11-15T10:34:37;15.90;;;11.07;;
1509;SDS011;746;48.688;9.428;2022-11-15T10:37:00;12.73;;;11.33;;
1509;SDS011;746;48.688;9.428;2022-11-15T10:39:22;12.43;;;11.17;;
1509;SDS011;746;48.688;9.428;2022-11-15T10:41:43;12.57;;;11.00;;
1509;SDS011;746;48.688;9.428;2022-11-15T10:44:21;12.70;;;10.97;;
1509;SDS011;746;48.688;9.428;2022-11-15T10:46:44;12.10;;;10.30;;
1509;SDS011;746;48.688;9.428;2022-11-15T10:49:12;12.67;;;11.47;;
1509;SDS011;746;48.688;9.428;2022-11-15T10:51:33;12.80;;;11.13;;
1509;SDS011;746;48.688;9.428;2022-11-15T10:54:02;13.23;;;11.13;;
1509;SDS011;746;48.688;9.428;2022-11-15T10:56:33;12.77;;;10.37;;
1509;SDS011;746;48.688;9.428;2022-11-15T10:58:57;10.77;;;9.87;;
1509;SDS011;746;48.688;9.428;2022-11-15T11:01:20;11.63;;;10.20;;
1509;SDS011;746;48.688;9.428;2022-11-15T11:03:43;18.23;;;10.27;;
1509;SDS011;746;48.688;9.428;2022-11-15T11:06:06;11.27;;;10.07;;
1509;SDS011;746;48.688;9.428;2022-11-15T11:08:27;13.23;;;11.30;;
1509;SDS011;746;48.688;9.428;2022-11-15T11:10:53;11.97;;;10.77;;
1509;SDS011;746;48.688;9.428;2022-11-15T11:13:22;11.60;;;10.10;;
1509;SDS011;746;48.688;9.428;2022-11-15T11:15:45;13.60;;;10.37;;
1509;SDS011;746;48.688;9.428;2022-11-15T11:18:07;15.23;;;11.27;;
1509;SDS011;746;48.688;9.428;2022-11-15T11:20:30;13.23;;;11.00;;
1509;SDS011;746;48.688;9.428;2022-11-15T11:22:58;12.40;;;10.77;;
1509;SDS011;746;48.688;9.428;2022-11-15T11:25:23;13.97;;;10.73;;
1509;SDS011;746;48.688;9.428;2022-11-15T11:27:56;13.20;;;11.80;;
1509;SDS011;746;48.688;9.428;2022-11-15T11:30:23;12.40;;;9.33;;
1509;SDS011;746;48.688;9.428;2022-11-15T11:32:49;10.37;;;9.27;;
1509;SDS011;746;48.688;9.428;2022-11-15T11:35:17;10.53;;;9.43;;
1509;SDS011;746;48.688;9.428;2022-11-15T11:37:43;13.00;;;10.50;;
1509;SDS011;746;48.688;9.428;2022-11-15T11:40:12;10.67;;;9.43;;
1509;SDS011;746;48.688;9.428;2022-11-15T11:42:36;9.70;;;8.70;;
1509;SDS011;746;48.688;9.428;2022-11-15T11:45:02;10.87;;;8.40;;
1509;SDS011;746;48.688;9.428;2022-11-15T11:47:28;12.20;;;9.30;;
1509;SDS011;746;48.688;9.428;2022-11-15T11:49:53;10.70;;;8.50;;
1509;SDS011;746;48.688;9.428;2022-11-15T11:52:17;9.80;;;8.37;;
1509;SDS011;746;48.688;9.428;2022-11-15T11:54:44;12.83;;;8.83;;
1509;SDS011;746;48.688;9.428;2022-11-15T11:57:09;11.00;;;9.33;;
1509;SDS011;746;48.688;9.428;2022-11-15T11:59:33;11.33;;;8.93;;
1509;SDS011;746;48.688;9.428;2022-11-15T12:01:59;9.80;;;8.73;;
1509;SDS011;746;48.688;9.428;2022-11-15T12:04:24;8.80;;;7.93;;
1509;SDS011;746;48.688;9.428;2022-11-15T12:06:49;10.47;;;7.97;;
1509;SDS011;746;48.688;9.428;2022-11-15T12:09:12;8.30;;;7.50;;
1509;SDS011;746;48.688;9.428;2022-11-15T12:11:36;7.00;;;6.40;;
1509;SDS011;746;48.688;9.428;2022-11-15T12:13:59;7.93;;;7.23;;
1509;SDS011;746;48.688;9.428;2022-11-15T12:16:21;7.47;;;6.73;;
1509;SDS011;746;48.688;9.428;2022-11-15T12:18:46;8.77;;;7.97;;
1509;SDS011;746;48.688;9.428;2022-11-15T12:21:13;9.50;;;8.00;;
1509;SDS011;746;48.688;9.428;2022-11-15T12:23:37;11.67;;;7.83;;
1509;SDS011;746;48.688;9.428;2022-11-15T12:26:00;9.27;;;7.43;;
1509;SDS011;746;48.688;9.428;2022-11-15T12:28:25;8.53;;;7.63;;
1509;SDS011;746;48.688;9.428;2022-11-15T12:30:54;7.53;;;6.83;;
1509;SDS011;746;48.688;9.428;2022-11-15T12:33:30;8.23;;;6.77;;
1509;SDS011;746;48.688;9.428;2022-11-15T12:35:59;8.30;;;5.10;;
1509;SDS011;746;48.688;9.428;2022-11-15T12:41:11;6.50;;;5.80;;
1509;SDS011;746;48.688;9.428;2022-11-15T12:43:37;6.93;;;5.13;;
1509;SDS011;746;48.688;9.428;2022-11-15T12:46:01;6.83;;;6.23;;
1509;SDS011;746;48.688;9.428;2022-11-15T12:51:20;6.17;;;5.57;;
1509;SDS011;746;48.688;9.428;2022-11-15T12:53:41;6.50;;;5.87;;
1509;SDS011;746;48.688;9.428;2022-11-15T12:58:46;7.43;;;5.57;;
1509;SDS011;746;48.688;9.428;2022-11-15T13:01:07;8.33;;;5.90;;
1509;SDS011;746;48.688;9.428;2022-11-15T13:03:29;6.67;;;5.40;;
1509;SDS011;746;48.688;9.428;2022-11-15T13:06:07;6.03;;;5.50;;
1509;SDS011;746;48.688;9.428;2022-11-15T13:08:48;6.50;;;5.60;;
1509;SDS011;746;48.688;9.428;2022-11-15T13:13:51;5.70;;;5.20;;
1509;SDS011;746;48.688;9.428;2022-11-15T13:16:13;6.77;;;5.40;;
1509;SDS011;746;48.688;9.428;2022-11-15T13:18:39;6.23;;;5.63;;
1509;SDS011;746;48.688;9.428;2022-11-15T13:21:01;5.97;;;5.30;;
1509;SDS011;746;48.688;9.428;2022-11-15T13:23:42;6.13;;;5.53;;
1509;SDS011;746;48.688;9.428;2022-11-15T13:26:10;6.57;;;5.17;;
1509;SDS011;746;48.688;9.428;2022-11-15T13:28:33;6.13;;;5.30;;
1509;SDS011;746;48.688;9.428;2022-11-15T13:30:55;6.47;;;5.30;;
1509;SDS011;746;48.688;9.428;2022-11-15T13:33:18;6.33;;;5.23;;
1509;SDS011;746;48.688;9.428;2022-11-15T13:35:40;5.67;;;5.10;;
1509;SDS011;746;48.688;9.428;2022-11-15T13:38:02;8.00;;;5.60;;
1509;SDS011;746;48.688;9.428;2022-11-15T13:40:25;5.17;;;4.67;;
1509;SDS011;746;48.688;9.428;2022-11-15T13:42:51;5.00;;;4.47;;
1509;SDS011;746;48.688;9.428;2022-11-15T13:45:13;7.23;;;4.73;;
1509;SDS011;746;48.688;9.428;2022-11-15T13:47:35;4.50;;;4.10;;
1509;SDS011;746;48.688;9.428;2022-11-15T13:49:57;6.87;;;5.10;;
1509;SDS011;746;48.688;9.428;2022-11-15T13:52:27;10.07;;;5.47;;
1509;SDS011;746;48.688;9.428;2022-11-15T13:54:50;6.53;;;5.33;;
1509;SDS011;746;48.688;9.428;2022-11-15T13:57:16;5.50;;;5.10;;
1509;SDS011;746;48.688;9.428;2022-11-15T13:59:45;5.47;;;5.07;;
1509;SDS011;746;48.688;9.428;2022-11-15T14:02:11;7.83;;;5.60;;
1509;SDS011;746;48.688;9.428;2022-11-15T14:04:38;5.97;;;5.43;;
1509;SDS011;746;48.688;9.428;2022-11-15T14:07:01;6.10;;;5.50;;
1509;SDS011;746;48.688;9.428;2022-11-15T14:09:29;5.30;;;4.80;;
1509;SDS011;746;48.688;9.428;2022-11-15T14:11:53;5.43;;;4.90;;
1509;SDS011;746;48.688;9.428;2022-11-15T14:14:15;6.80;;;4.73;;
1509;SDS011;746;48.688;9.428;2022-11-15T14:16:38;7.90;;;4.87;;
1509;SDS011;746;48.688;9.428;2022-11-15T14:18:59;5.67;;;4.97;;
1509;SDS011;746;48.688;9.428;2022-11-15T14:21:21;7.40;;;5.80;;
1509;SDS011;746;48.688;9.428;2022-11-15T14:23:42;6.33;;;5.40;;
1509;SDS011;746;48.688;9.428;2022-11-15T14:26:03;5.47;;;4.97;;
1509;SDS011;746;48.688;9.428;2022-11-15T14:28:31;5.57;;;4.97;;
1509;SDS011;746;48.688;9.428;2022-11-15T14:30:56;5.80;;;5.17;;
1509;SDS011;746;48.688;9.428;2022-11-15T14:33:21;4.93;;;4.53;;
1509;SDS011;746;48.688;9.428;2022-11-15T14:35:42;5.03;;;4.50;;
1509;SDS011;746;48.688;9.428;2022-11-15T14:38:03;5.60;;;4.37;;
1509;SDS011;746;48.688;9.428;2022-11-15T14:40:25;6.50;;;4.50;;
1509;SDS011;746;48.688;9.428;2022-11-15T14:42:46;8.03;;;5.20;;
1509;SDS011;746;48.688;9.428;2022-11-15T14:45:10;6.17;;;5.57;;
1509;SDS011;746;48.688;9.428;2022-11-15T14:47:32;6.33;;;5.53;;
1509;SDS011;746;48.688;9.428;2022-11-15T14:49:55;7.33;;;5.50;;
1509;SDS011;746;48.688;9.428;2022-11-15T14:52:21;5.60;;;5.00;;
1509;SDS011;746;48.688;9.428;2022-11-15T14:54:51;5.33;;;4.50;;
1509;SDS011;746;48.688;9.428;2022-11-15T14:57:12;6.90;;;4.90;;